sensor_id;sensor_type;location;lat;lon;timestamp;pressure;altitude;pressure_sealevel;temperature;humidity
70902;BME280;58548;47.210;8.618;2022-09-03T00:00:24;93903.44;;;23.41;42.91
70902;BME280;58548;47.210;8.618;2022-09-03T00:03:01;93924.38;;;23.69;43.50
70902;BME280;58548;47.210;8.618;2022-09-03T00:05:36;93933.63;;;23.82;43.89
70902;BME280;58548;47.210;8.618;2022-09-03T00:08:25;93911.28;;;23.72;43.98
70902;BME280;58548;47.210;8.618;2022-09-03T00:11:01;93921.72;;;23.63;44.07
70902;BME280;58548;47.210;8.618;2022-09-03T00:13:35;93913.41;;;23.70;43.99
70902;BME280;58548;47.210;8.618;2022-09-03T00:16:07;93919.47;;;23.86;44.16
70902;BME280;58548;47.210;8.618;2022-09-03T00:18:42;93940.44;;;24.03;43.93
70902;BME280;58548;47.210;8.618;2022-09-03T00:21:17;93925.78;;;24.01;44.16
70902;BME280;58548;47.210;8.618;2022-09-03T00:23:49;93943.06;;;24.08;43.90
70902;BME280;58548;47.210;8.618;2022-09-03T00:26:27;93918.84;;;24.00;43.88
70902;BME280;58548;47.210;8.618;2022-09-03T00:31:38;93940.34;;;24.19;43.96
70902;BME280;58548;47.210;8.618;2022-09-03T00:34:19;93914.63;;;23.93;43.63
70902;BME280;58548;47.210;8.618;2022-09-03T00:36:49;93958.19;;;24.18;43.54
70902;BME280;58548;47.210;8.618;2022-09-03T00:39:20;93940.66;;;24.12;43.15
70902;BME280;58548;47.210;8.618;2022-09-03T00:50:11;93952.78;;;23.84;44.04
70902;BME280;58548;47.210;8.618;2022-09-03T00:58:35;93934.91;;;23.89;43.26
70902;BME280;58548;47.210;8.618;2022-09-03T01:07:11;93926.19;;;24.18;43.08
70902;BME280;58548;47.210;8.618;2022-09-03T01:13:16;93896.63;;;24.09;42.88
70902;BME280;58548;47.210;8.618;2022-09-03T01:19:14;93909.16;;;24.14;43.06
70902;BME280;58548;47.210;8.618;2022-09-03T01:28:05;93913.31;;;24.26;43.21
70902;BME280;58548;47.210;8.618;2022-09-03T01:30:56;93896.25;;;24.27;43.46
70902;BME280;58548;47.210;8.618;2022-09-03T01:33:53;93900.78;;;24.26;42.90
70902;BME280;58548;47.210;8.618;2022-09-03T01:39:02;93907.47;;;24.23;43.58
70902;BME280;58548;47.210;8.618;2022-09-03T01:53:27;93929.34;;;24.26;42.37
70902;BME280;58548;47.210;8.618;2022-09-03T01:58:53;93958.06;;;23.94;42.42
70902;BME280;58548;47.210;8.618;2022-09-03T02:01:40;93937.38;;;23.75;42.97
70902;BME280;58548;47.210;8.618;2022-09-03T02:04:18;93924.47;;;23.93;42.85
70902;BME280;58548;47.210;8.618;2022-09-03T02:06:51;93933.47;;;24.07;42.82
70902;BME280;58548;47.210;8.618;2022-09-03T02:09:18;93935.84;;;24.14;43.02
70902;BME280;58548;47.210;8.618;2022-09-03T02:11:55;93925.16;;;24.14;42.38
70902;BME280;58548;47.210;8.618;2022-09-03T02:14:28;93921.50;;;24.05;42.86
70902;BME280;58548;47.210;8.618;2022-09-03T02:16:57;93955.09;;;24.06;42.20
70902;BME280;58548;47.210;8.618;2022-09-03T02:19:27;93950.41;;;23.82;42.86
70902;BME280;58548;47.210;8.618;2022-09-03T02:21:56;93928.06;;;23.73;42.98
70902;BME280;58548;47.210;8.618;2022-09-03T02:24:27;93951.91;;;24.04;42.51
70902;BME280;58548;47.210;8.618;2022-09-03T02:26:56;93936.97;;;24.03;42.67
70902;BME280;58548;47.210;8.618;2022-09-03T02:29:22;93958.16;;;24.23;42.66
70902;BME280;58548;47.210;8.618;2022-09-03T02:31:51;93938.44;;;24.19;43.36
70902;BME280;58548;47.210;8.618;2022-09-03T02:34:17;93923.00;;;24.16;43.17
70902;BME280;58548;47.210;8.618;2022-09-03T02:36:45;93940.53;;;24.28;43.48
70902;BME280;58548;47.210;8.618;2022-09-03T02:39:15;93921.88;;;24.22;43.21
70902;BME280;58548;47.210;8.618;2022-09-03T02:41:43;93954.28;;;24.40;43.23
70902;BME280;58548;47.210;8.618;2022-09-03T02:44:23;93922.94;;;24.27;43.65
70902;BME280;58548;47.210;8.618;2022-09-03T02:46:57;93943.06;;;24.43;43.21
70902;BME280;58548;47.210;8.618;2022-09-03T02:49:24;93929.31;;;24.31;43.43
70902;BME280;58548;47.210;8.618;2022-09-03T02:51:58;93939.88;;;24.41;43.55
70902;BME280;58548;47.210;8.618;2022-09-03T02:54:33;93920.22;;;24.32;43.60
70902;BME280;58548;47.210;8.618;2022-09-03T02:57:15;93929.75;;;24.38;42.97
70902;BME280;58548;47.210;8.618;2022-09-03T02:59:45;93936.69;;;24.39;42.92
70902;BME280;58548;47.210;8.618;2022-09-03T03:02:12;93925.59;;;24.27;43.14
70902;BME280;58548;47.210;8.618;2022-09-03T03:04:40;93944.44;;;24.41;43.50
70902;BME280;58548;47.210;8.618;2022-09-03T03:07:06;93921.34;;;24.26;43.51
70902;BME280;58548;47.210;8.618;2022-09-03T03:09:35;93912.84;;;24.18;43.61
70902;BME280;58548;47.210;8.618;2022-09-03T03:12:01;93923.16;;;24.30;43.84
70902;BME280;58548;47.210;8.618;2022-09-03T03:14:29;93937.28;;;24.36;43.76
70902;BME280;58548;47.210;8.618;2022-09-03T03:16:57;93932.53;;;24.28;43.54
70902;BME280;58548;47.210;8.618;2022-09-03T03:19:23;93948.72;;;24.36;43.51
70902;BME280;58548;47.210;8.618;2022-09-03T03:21:49;93943.19;;;24.28;42.92
70902;BME280;58548;47.210;8.618;2022-09-03T03:24:15;93971.44;;;24.34;43.46
70902;BME280;58548;47.210;8.618;2022-09-03T03:26:43;93968.28;;;24.27;43.47
70902;BME280;58548;47.210;8.618;2022-09-03T03:29:16;93964.41;;;24.08;43.85
70902;BME280;58548;47.210;8.618;2022-09-03T03:31:43;93967.75;;;24.24;43.04
70902;BME280;58548;47.210;8.618;2022-09-03T03:34:13;93958.53;;;24.06;43.19
70902;BME280;58548;47.210;8.618;2022-09-03T03:36:39;93975.84;;;24.14;43.32
70902;BME280;58548;47.210;8.618;2022-09-03T03:39:08;93981.19;;;24.14;42.86
70902;BME280;58548;47.210;8.618;2022-09-03T03:41:35;93973.75;;;24.11;43.00
70902;BME280;58548;47.210;8.618;2022-09-03T03:44:04;93972.09;;;24.15;43.04
70902;BME280;58548;47.210;8.618;2022-09-03T03:46:36;93988.31;;;24.24;43.69
70902;BME280;58548;47.210;8.618;2022-09-03T03:49:07;93971.59;;;24.13;43.40
70902;BME280;58548;47.210;8.618;2022-09-03T03:51:36;94000.53;;;24.30;43.41
70902;BME280;58548;47.210;8.618;2022-09-03T03:54:03;94006.06;;;24.39;43.30
70902;BME280;58548;47.210;8.618;2022-09-03T03:56:32;93979.81;;;24.22;43.73
70902;BME280;58548;47.210;8.618;2022-09-03T03:58:59;93992.78;;;24.34;43.50
70902;BME280;58548;47.210;8.618;2022-09-03T04:01:26;94000.50;;;24.35;43.59
70902;BME280;58548;47.210;8.618;2022-09-03T04:03:57;94008.06;;;24.58;43.45
70902;BME280;58548;47.210;8.618;2022-09-03T04:06:25;93987.38;;;24.39;43.66
70902;BME280;58548;47.210;8.618;2022-09-03T04:08:53;93999.63;;;24.45;43.81
70902;BME280;58548;47.210;8.618;2022-09-03T04:11:23;93994.38;;;24.35;43.78
70902;BME280;58548;47.210;8.618;2022-09-03T04:13:51;94010.78;;;24.52;43.75
70902;BME280;58548;47.210;8.618;2022-09-03T04:16:24;94015.59;;;24.56;43.99
70902;BME280;58548;47.210;8.618;2022-09-03T04:18:56;93991.09;;;24.43;43.51
70902;BME280;58548;47.210;8.618;2022-09-03T04:21:27;94005.72;;;24.51;44.54
70902;BME280;58548;47.210;8.618;2022-09-03T04:23:54;93987.34;;;24.44;43.90
70902;BME280;58548;47.210;8.618;2022-09-03T04:26:24;93984.72;;;24.39;43.95
70902;BME280;58548;47.210;8.618;2022-09-03T04:28:50;93997.38;;;24.58;43.95
70902;BME280;58548;47.210;8.618;2022-09-03T04:31:18;93916.94;;;24.05;43.75
70902;BME280;58548;47.210;8.618;2022-09-03T04:33:47;93984.44;;;24.46;43.74
70902;BME280;58548;47.210;8.618;2022-09-03T04:36:14;93997.97;;;24.54;43.76
70902;BME280;58548;47.210;8.618;2022-09-03T04:38:47;93994.22;;;24.56;43.71
70902;BME280;58548;47.210;8.618;2022-09-03T04:41:22;93987.28;;;24.54;43.79
70902;BME280;58548;47.210;8.618;2022-09-03T04:43:52;93987.53;;;24.58;43.58
70902;BME280;58548;47.210;8.618;2022-09-03T04:46:20;93983.03;;;24.53;43.96
70902;BME280;58548;47.210;8.618;2022-09-03T04:48:48;93981.94;;;24.54;43.76
70902;BME280;58548;47.210;8.618;2022-09-03T04:51:22;93972.91;;;24.50;43.72
70902;BME280;58548;47.210;8.618;2022-09-03T04:53:58;93958.31;;;24.37;44.05
70902;BME280;58548;47.210;8.618;2022-09-03T04:56:30;93976.88;;;24.53;44.07
70902;BME280;58548;47.210;8.618;2022-09-03T04:59:04;93989.97;;;24.54;44.18
70902;BME280;58548;47.210;8.618;2022-09-03T05:01:33;93978.28;;;24.45;43.33
70902;BME280;58548;47.210;8.618;2022-09-03T05:04:02;93965.78;;;24.41;43.37
70902;BME280;58548;47.210;8.618;2022-09-03T05:06:34;93971.34;;;24.44;43.78
70902;BME280;58548;47.210;8.618;2022-09-03T05:09:04;93950.16;;;24.23;43.81
70902;BME280;58548;47.210;8.618;2022-09-03T05:11:35;93971.44;;;24.34;43.49
70902;BME280;58548;47.210;8.618;2022-09-03T05:14:03;93985.75;;;24.43;43.01
70902;BME280;58548;47.210;8.618;2022-09-03T05:16:31;93980.47;;;24.38;42.74
70902;BME280;58548;47.210;8.618;2022-09-03T05:19:00;93973.25;;;24.38;43.03
70902;BME280;58548;47.210;8.618;2022-09-03T05:21:33;93993.19;;;24.51;42.89
70902;BME280;58548;47.210;8.618;2022-09-03T05:24:01;93990.22;;;24.53;42.88
70902;BME280;58548;47.210;8.618;2022-09-03T05:26:35;93983.59;;;24.50;42.74
70902;BME280;58548;47.210;8.618;2022-09-03T05:29:03;93991.03;;;24.53;43.04
70902;BME280;58548;47.210;8.618;2022-09-03T05:31:36;93997.38;;;24.58;42.78
70902;BME280;58548;47.210;8.618;2022-09-03T05:34:05;93980.34;;;24.53;42.25
70902;BME280;58548;47.210;8.618;2022-09-03T05:36:35;93964.16;;;24.45;42.98
70902;BME280;58548;47.210;8.618;2022-09-03T05:39:07;93971.34;;;24.44;42.66
70902;BME280;58548;47.210;8.618;2022-09-03T05:41:35;93969.94;;;24.52;43.21
70902;BME280;58548;47.210;8.618;2022-09-03T05:44:01;93977.06;;;24.62;43.57
70902;BME280;58548;47.210;8.618;2022-09-03T05:46:31;93986.34;;;24.75;43.17
70902;BME280;58548;47.210;8.618;2022-09-03T05:49:05;93948.91;;;24.80;42.70
70902;BME280;58548;47.210;8.618;2022-09-03T05:51:37;93953.00;;;24.72;42.36
70902;BME280;58548;47.210;8.618;2022-09-03T05:54:11;93946.84;;;24.72;42.26
70902;BME280;58548;47.210;8.618;2022-09-03T05:56:39;93968.34;;;24.86;42.54
70902;BME280;58548;47.210;8.618;2022-09-03T05:59:08;93947.19;;;24.60;43.38
70902;BME280;58548;47.210;8.618;2022-09-03T06:01:39;93956.09;;;24.79;42.98
70902;BME280;58548;47.210;8.618;2022-09-03T06:04:13;93924.22;;;24.59;42.70
70902;BME280;58548;47.210;8.618;2022-09-03T06:06:44;93934.69;;;24.55;42.77
70902;BME280;58548;47.210;8.618;2022-09-03T06:09:15;93870.88;;;24.29;42.17
70902;BME280;58548;47.210;8.618;2022-09-03T06:11:48;93918.19;;;25.07;42.55
70902;BME280;58548;47.210;8.618;2022-09-03T06:14:17;93905.97;;;24.76;42.88
70902;BME280;58548;47.210;8.618;2022-09-03T06:16:47;93910.41;;;24.57;43.46
70902;BME280;58548;47.210;8.618;2022-09-03T06:19:14;93906.13;;;24.56;44.06
70902;BME280;58548;47.210;8.618;2022-09-03T06:21:43;93926.81;;;24.74;43.98
70902;BME280;58548;47.210;8.618;2022-09-03T06:24:18;93918.00;;;24.68;44.06
70902;BME280;58548;47.210;8.618;2022-09-03T06:26:44;93934.28;;;24.72;44.39
70902;BME280;58548;47.210;8.618;2022-09-03T06:29:11;93904.66;;;24.68;43.54
70902;BME280;58548;47.210;8.618;2022-09-03T06:31:38;93909.88;;;24.54;44.32
70902;BME280;58548;47.210;8.618;2022-09-03T06:34:04;93925.38;;;24.52;44.40
70902;BME280;58548;47.210;8.618;2022-09-03T06:36:33;93920.59;;;24.49;44.78
70902;BME280;58548;47.210;8.618;2022-09-03T06:38:58;93887.44;;;24.56;44.93
70902;BME280;58548;47.210;8.618;2022-09-03T06:41:27;93908.63;;;24.76;44.35
70902;BME280;58548;47.210;8.618;2022-09-03T06:44:07;93917.72;;;24.75;44.30
70902;BME280;58548;47.210;8.618;2022-09-03T06:46:37;93904.94;;;24.67;44.16
70902;BME280;58548;47.210;8.618;2022-09-03T06:49:04;93886.84;;;25.12;44.13
70902;BME280;58548;47.210;8.618;2022-09-03T06:51:31;93918.94;;;25.56;44.12
70902;BME280;58548;47.210;8.618;2022-09-03T06:54:03;93878.72;;;25.99;44.36
70902;BME280;58548;47.210;8.618;2022-09-03T06:56:29;93913.44;;;26.71;41.56
70902;BME280;58548;47.210;8.618;2022-09-03T06:59:04;93914.41;;;27.08;39.67
70902;BME280;58548;47.210;8.618;2022-09-03T07:01:32;93909.13;;;27.03;40.21
70902;BME280;58548;47.210;8.618;2022-09-03T07:04:03;93917.25;;;26.98;40.43
70902;BME280;58548;47.210;8.618;2022-09-03T07:06:32;93886.28;;;27.47;40.53
70902;BME280;58548;47.210;8.618;2022-09-03T07:09:02;93909.81;;;28.24;38.20
70902;BME280;58548;47.210;8.618;2022-09-03T07:11:30;93858.56;;;28.34;38.09
70902;BME280;58548;47.210;8.618;2022-09-03T07:13:58;93906.44;;;29.36;36.21
70902;BME280;58548;47.210;8.618;2022-09-03T07:16:27;93908.56;;;29.91;36.22
70902;BME280;58548;47.210;8.618;2022-09-03T07:18:58;93905.22;;;30.30;33.43
70902;BME280;58548;47.210;8.618;2022-09-03T07:21:27;93902.84;;;31.02;32.96
70902;BME280;58548;47.210;8.618;2022-09-03T07:23:55;93902.25;;;31.35;32.88
70902;BME280;58548;47.210;8.618;2022-09-03T07:26:26;93870.63;;;31.66;31.80
70902;BME280;58548;47.210;8.618;2022-09-03T07:28:56;93826.44;;;31.92;30.55
70902;BME280;58548;47.210;8.618;2022-09-03T07:31:28;93889.06;;;32.61;30.49
70902;BME280;58548;47.210;8.618;2022-09-03T07:34:00;93904.78;;;33.05;29.19
70902;BME280;58548;47.210;8.618;2022-09-03T07:36:37;93777.66;;;32.68;29.78
70902;BME280;58548;47.210;8.618;2022-09-03T07:39:04;93901.84;;;33.85;27.08
70902;BME280;58548;47.210;8.618;2022-09-03T07:41:31;93905.72;;;34.12;26.79
70902;BME280;58548;47.210;8.618;2022-09-03T07:44:00;93883.66;;;33.97;26.26
70902;BME280;58548;47.210;8.618;2022-09-03T07:46:34;93906.69;;;33.91;26.00
70902;BME280;58548;47.210;8.618;2022-09-03T07:49:01;93896.56;;;33.63;27.03
70902;BME280;58548;47.210;8.618;2022-09-03T07:51:32;93892.88;;;33.56;26.88
70902;BME280;58548;47.210;8.618;2022-09-03T07:54:04;93896.25;;;33.65;27.47
70902;BME280;58548;47.210;8.618;2022-09-03T07:56:37;93910.88;;;33.89;26.24
70902;BME280;58548;47.210;8.618;2022-09-03T07:59:08;93901.41;;;33.70;26.05
70902;BME280;58548;47.210;8.618;2022-09-03T08:01:35;93907.41;;;33.63;26.36
70902;BME280;58548;47.210;8.618;2022-09-03T08:04:02;93906.88;;;33.45;27.38
70902;BME280;58548;47.210;8.618;2022-09-03T08:06:30;93915.22;;;33.40;27.13
70902;BME280;58548;47.210;8.618;2022-09-03T08:08:58;93913.97;;;33.37;26.87
70902;BME280;58548;47.210;8.618;2022-09-03T08:11:28;93901.31;;;33.29;27.67
70902;BME280;58548;47.210;8.618;2022-09-03T08:13:57;93897.13;;;33.32;26.78
70902;BME280;58548;47.210;8.618;2022-09-03T08:16:32;93919.00;;;33.89;27.78
70902;BME280;58548;47.210;8.618;2022-09-03T08:18:59;93920.03;;;34.53;26.12
70902;BME280;58548;47.210;8.618;2022-09-03T08:21:25;93905.75;;;35.17;24.37
70902;BME280;58548;47.210;8.618;2022-09-03T08:23:54;93915.81;;;36.00;23.65
70902;BME280;58548;47.210;8.618;2022-09-03T08:26:29;93938.91;;;36.69;21.90
70902;BME280;58548;47.210;8.618;2022-09-03T08:28:56;93919.63;;;37.21;23.25
70902;BME280;58548;47.210;8.618;2022-09-03T08:31:26;93931.59;;;37.93;22.19
70902;BME280;58548;47.210;8.618;2022-09-03T08:33:55;93913.97;;;38.14;21.32
70902;BME280;58548;47.210;8.618;2022-09-03T08:36:33;93944.50;;;38.91;21.09
70902;BME280;58548;47.210;8.618;2022-09-03T08:39:01;93947.25;;;39.36;20.79
70902;BME280;58548;47.210;8.618;2022-09-03T08:44:30;93941.72;;;40.59;18.62
70902;BME280;58548;47.210;8.618;2022-09-03T08:47:09;93942.56;;;40.78;17.25
70902;BME280;58548;47.210;8.618;2022-09-03T08:49:47;93957.53;;;41.17;18.36
70902;BME280;58548;47.210;8.618;2022-09-03T08:55:02;93954.38;;;41.22;17.77
70902;BME280;58548;47.210;8.618;2022-09-03T08:57:40;93957.91;;;41.11;18.03
70902;BME280;58548;47.210;8.618;2022-09-03T09:00:08;93966.13;;;41.48;18.30
70902;BME280;58548;47.210;8.618;2022-09-03T09:03:00;93973.59;;;41.58;17.67
70902;BME280;58548;47.210;8.618;2022-09-03T09:05:53;93957.16;;;41.62;17.34
70902;BME280;58548;47.210;8.618;2022-09-03T09:14:06;93987.69;;;41.85;16.02
70902;BME280;58548;47.210;8.618;2022-09-03T09:16:46;94008.03;;;41.55;16.19
70902;BME280;58548;47.210;8.618;2022-09-03T09:22:10;94025.69;;;40.40;16.62
70902;BME280;58548;47.210;8.618;2022-09-03T09:24:46;94026.38;;;39.74;16.91
70902;BME280;58548;47.210;8.618;2022-09-03T09:27:17;94013.25;;;39.04;17.54
70902;BME280;58548;47.210;8.618;2022-09-03T09:29:47;94024.97;;;38.40;18.68
70902;BME280;58548;47.210;8.618;2022-09-03T09:32:19;94038.09;;;37.81;20.06
70902;BME280;58548;47.210;8.618;2022-09-03T09:34:45;94057.38;;;37.25;20.61
70902;BME280;58548;47.210;8.618;2022-09-03T09:37:13;94063.91;;;36.62;21.15
70902;BME280;58548;47.210;8.618;2022-09-03T09:39:56;94037.22;;;35.48;22.52
70902;BME280;58548;47.210;8.618;2022-09-03T09:42:23;94071.41;;;34.92;23.03
70902;BME280;58548;47.210;8.618;2022-09-03T09:44:49;94089.16;;;34.49;24.33
70902;BME280;58548;47.210;8.618;2022-09-03T09:47:33;94093.72;;;34.07;25.03
70902;BME280;58548;47.210;8.618;2022-09-03T09:50:18;94098.59;;;33.43;25.97
70902;BME280;58548;47.210;8.618;2022-09-03T09:52:45;94101.94;;;32.85;27.92
70902;BME280;58548;47.210;8.618;2022-09-03T09:55:17;94093.75;;;32.30;28.25
70902;BME280;58548;47.210;8.618;2022-09-03T09:57:52;94084.88;;;31.91;29.46
70902;BME280;58548;47.210;8.618;2022-09-03T10:00:18;94122.91;;;31.68;29.99
70902;BME280;58548;47.210;8.618;2022-09-03T10:02:49;94095.22;;;31.33;30.64
70902;BME280;58548;47.210;8.618;2022-09-03T10:05:31;94131.56;;;31.18;31.62
70902;BME280;58548;47.210;8.618;2022-09-03T10:08:17;94101.44;;;30.80;31.52
70902;BME280;58548;47.210;8.618;2022-09-03T10:10:47;94131.25;;;30.75;32.14
70902;BME280;58548;47.210;8.618;2022-09-03T10:13:41;94122.00;;;30.41;31.97
70902;BME280;58548;47.210;8.618;2022-09-03T10:16:32;94127.84;;;30.26;31.96
70902;BME280;58548;47.210;8.618;2022-09-03T10:19:08;94142.69;;;30.14;32.77
70902;BME280;58548;47.210;8.618;2022-09-03T10:21:44;94134.75;;;30.09;32.55
70902;BME280;58548;47.210;8.618;2022-09-03T10:24:20;94148.41;;;29.81;33.00
70902;BME280;58548;47.210;8.618;2022-09-03T10:26:52;94108.06;;;29.49;33.52
70902;BME280;58548;47.210;8.618;2022-09-03T10:29:24;94090.50;;;29.29;33.71
70902;BME280;58548;47.210;8.618;2022-09-03T10:34:48;94105.81;;;28.97;34.12
70902;BME280;58548;47.210;8.618;2022-09-03T10:40:27;94123.47;;;28.53;35.29
70902;BME280;58548;47.210;8.618;2022-09-03T10:46:39;94119.38;;;28.41;35.85
70902;BME280;58548;47.210;8.618;2022-09-03T10:51:41;94106.19;;;28.31;36.92
70902;BME280;58548;47.210;8.618;2022-09-03T11:00:06;94135.78;;;28.68;36.85
70902;BME280;58548;47.210;8.618;2022-09-03T11:08:40;94125.78;;;30.31;34.24
70902;BME280;58548;47.210;8.618;2022-09-03T11:11:30;94107.19;;;30.70;32.73
70902;BME280;58548;47.210;8.618;2022-09-03T11:14:09;94086.53;;;31.09;30.75
70902;BME280;58548;47.210;8.618;2022-09-03T11:16:44;94118.19;;;31.48;30.63
70902;BME280;58548;47.210;8.618;2022-09-03T11:19:16;94093.03;;;31.17;30.85
70902;BME280;58548;47.210;8.618;2022-09-03T11:21:47;94111.75;;;31.13;30.27
70902;BME280;58548;47.210;8.618;2022-09-03T11:24:24;94096.38;;;30.79;30.87
70902;BME280;58548;47.210;8.618;2022-09-03T11:27:14;94104.78;;;30.68;31.42
70902;BME280;58548;47.210;8.618;2022-09-03T11:29:54;94103.16;;;30.50;31.66
70902;BME280;58548;47.210;8.618;2022-09-03T11:32:40;94072.41;;;30.24;32.13
70902;BME280;58548;47.210;8.618;2022-09-03T11:35:22;94028.91;;;29.91;33.89
70902;BME280;58548;47.210;8.618;2022-09-03T11:46:02;94071.03;;;30.71;32.36
70902;BME280;58548;47.210;8.618;2022-09-03T11:48:43;94078.09;;;31.20;32.57
70902;BME280;58548;47.210;8.618;2022-09-03T11:51:29;94077.44;;;32.18;31.76
70902;BME280;58548;47.210;8.618;2022-09-03T11:56:39;94074.44;;;33.38;28.70
70902;BME280;58548;47.210;8.618;2022-09-03T11:59:26;94077.75;;;33.81;27.29
70902;BME280;58548;47.210;8.618;2022-09-03T12:02:00;94078.88;;;34.30;26.67
70902;BME280;58548;47.210;8.618;2022-09-03T12:09:52;94092.22;;;34.88;25.12
70902;BME280;58548;47.210;8.618;2022-09-03T12:17:58;94080.44;;;34.55;24.46
70902;BME280;58548;47.210;8.618;2022-09-03T12:23:49;94099.25;;;35.17;25.79
70902;BME280;58548;47.210;8.618;2022-09-03T12:26:22;94055.84;;;35.33;24.53
70902;BME280;58548;47.210;8.618;2022-09-03T12:28:52;94106.44;;;36.18;24.41
70902;BME280;58548;47.210;8.618;2022-09-03T12:33:58;94115.69;;;37.44;22.41
70902;BME280;58548;47.210;8.618;2022-09-03T12:36:36;94111.59;;;38.00;21.58
70902;BME280;58548;47.210;8.618;2022-09-03T12:39:24;94106.16;;;38.00;21.28
70902;BME280;58548;47.210;8.618;2022-09-03T12:42:06;94114.09;;;37.86;20.56
70902;BME280;58548;47.210;8.618;2022-09-03T12:49:46;94098.75;;;36.56;22.21
70902;BME280;58548;47.210;8.618;2022-09-03T12:54:57;94105.75;;;36.21;21.99
70902;BME280;58548;47.210;8.618;2022-09-03T13:00:07;94085.59;;;35.58;22.62
70902;BME280;58548;47.210;8.618;2022-09-03T13:03:02;94083.25;;;35.28;22.99
70902;BME280;58548;47.210;8.618;2022-09-03T13:05:43;94011.44;;;34.40;23.25
70902;BME280;58548;47.210;8.618;2022-09-03T13:08:21;94086.09;;;34.63;23.87
70902;BME280;58548;47.210;8.618;2022-09-03T13:10:52;94074.81;;;34.48;23.49
70902;BME280;58548;47.210;8.618;2022-09-03T13:13:23;94074.47;;;34.37;24.27
70902;BME280;58548;47.210;8.618;2022-09-03T13:15:59;94070.97;;;34.24;23.23
70902;BME280;58548;47.210;8.618;2022-09-03T13:21:20;94043.38;;;34.06;23.11
70902;BME280;58548;47.210;8.618;2022-09-03T13:24:26;94053.94;;;34.11;22.17
70902;BME280;58548;47.210;8.618;2022-09-03T13:41:31;94018.66;;;33.95;23.02
70902;BME280;58548;47.210;8.618;2022-09-03T13:46:58;94036.34;;;34.18;23.01
70902;BME280;58548;47.210;8.618;2022-09-03T13:58:36;94012.88;;;34.09;22.61
70902;BME280;58548;47.210;8.618;2022-09-03T14:03:58;94015.69;;;34.13;23.59
70902;BME280;58548;47.210;8.618;2022-09-03T14:06:45;94036.75;;;34.32;22.37
70902;BME280;58548;47.210;8.618;2022-09-03T14:12:32;94034.75;;;34.17;23.45
70902;BME280;58548;47.210;8.618;2022-09-03T14:15:21;94038.00;;;34.22;23.13
70902;BME280;58548;47.210;8.618;2022-09-03T14:20:46;94022.59;;;34.10;23.26
70902;BME280;58548;47.210;8.618;2022-09-03T14:26:50;94007.25;;;34.02;22.96
70902;BME280;58548;47.210;8.618;2022-09-03T14:31:56;94005.91;;;33.46;23.88
70902;BME280;58548;47.210;8.618;2022-09-03T14:40:29;94013.78;;;33.51;23.36
70902;BME280;58548;47.210;8.618;2022-09-03T14:51:16;94020.75;;;33.52;23.89
70902;BME280;58548;47.210;8.618;2022-09-03T14:54:11;94011.50;;;33.53;23.32
70902;BME280;58548;47.210;8.618;2022-09-03T15:05:49;94015.53;;;33.35;23.15
70902;BME280;58548;47.210;8.618;2022-09-03T15:11:23;93999.63;;;33.21;23.12
70902;BME280;58548;47.210;8.618;2022-09-03T15:14:13;94016.75;;;33.25;24.16
70902;BME280;58548;47.210;8.618;2022-09-03T15:16:52;94012.69;;;33.19;24.16
70902;BME280;58548;47.210;8.618;2022-09-03T15:22:26;94020.16;;;32.88;24.27
70902;BME280;58548;47.210;8.618;2022-09-03T15:27:55;94016.34;;;32.89;25.08
70902;BME280;58548;47.210;8.618;2022-09-03T15:30:38;94007.66;;;32.84;25.00
70902;BME280;58548;47.210;8.618;2022-09-03T15:44:04;94006.75;;;32.58;25.74
70902;BME280;58548;47.210;8.618;2022-09-03T15:55:28;94019.38;;;32.24;25.43
70902;BME280;58548;47.210;8.618;2022-09-03T16:06:32;94021.19;;;31.90;26.89
70902;BME280;58548;47.210;8.618;2022-09-03T16:09:19;94007.22;;;31.88;27.22
70902;BME280;58548;47.210;8.618;2022-09-03T16:15:19;94031.34;;;31.54;28.37
70902;BME280;58548;47.210;8.618;2022-09-03T16:20:58;94019.19;;;31.39;29.06
70902;BME280;58548;47.210;8.618;2022-09-03T16:26:47;94011.50;;;31.03;29.98
70902;BME280;58548;47.210;8.618;2022-09-03T16:29:24;94030.84;;;30.96;30.14
70902;BME280;58548;47.210;8.618;2022-09-03T16:37:34;93993.47;;;30.42;30.33
70902;BME280;58548;47.210;8.618;2022-09-03T16:43:05;94046.72;;;30.45;30.83
70902;BME280;58548;47.210;8.618;2022-09-03T16:50:46;94034.06;;;30.28;31.22
70902;BME280;58548;47.210;8.618;2022-09-03T16:56:48;94051.63;;;30.16;31.60
70902;BME280;58548;47.210;8.618;2022-09-03T17:26:33;94031.22;;;29.34;33.06
70902;BME280;58548;47.210;8.618;2022-09-03T17:35:12;94028.78;;;29.24;33.97
70902;BME280;58548;47.210;8.618;2022-09-03T17:43:22;94041.44;;;29.24;34.23
70902;BME280;58548;47.210;8.618;2022-09-03T17:48:49;94032.44;;;28.97;34.09
70902;BME280;58548;47.210;8.618;2022-09-03T17:56:53;94052.28;;;29.10;35.15
70902;BME280;58548;47.210;8.618;2022-09-03T18:02:07;94050.09;;;28.89;34.93
70902;BME280;58548;47.210;8.618;2022-09-03T18:04:45;94048.78;;;28.78;35.71
70902;BME280;58548;47.210;8.618;2022-09-03T18:12:53;94073.06;;;28.72;38.42
70902;BME280;58548;47.210;8.618;2022-09-03T18:15:28;94057.22;;;28.48;37.85
70902;BME280;58548;47.210;8.618;2022-09-03T18:18:03;94082.78;;;28.46;37.91
70902;BME280;58548;47.210;8.618;2022-09-03T18:20:41;94083.75;;;28.13;36.55
70902;BME280;58548;47.210;8.618;2022-09-03T18:23:39;94069.63;;;27.93;37.62
70902;BME280;58548;47.210;8.618;2022-09-03T18:26:35;94098.44;;;28.02;37.81
70902;BME280;58548;47.210;8.618;2022-09-03T18:29:33;94091.69;;;27.76;37.47
70902;BME280;58548;47.210;8.618;2022-09-03T18:32:19;94098.53;;;27.54;37.95
70902;BME280;58548;47.210;8.618;2022-09-03T18:35:07;94082.53;;;27.16;38.39
70902;BME280;58548;47.210;8.618;2022-09-03T18:37:56;94114.81;;;27.11;39.00
70902;BME280;58548;47.210;8.618;2022-09-03T18:44:14;94107.88;;;26.72;40.26
70902;BME280;58548;47.210;8.618;2022-09-03T18:47:07;94117.53;;;26.54;40.25
70902;BME280;58548;47.210;8.618;2022-09-03T18:50:06;94122.22;;;26.43;40.42
70902;BME280;58548;47.210;8.618;2022-09-03T18:53:09;94113.91;;;26.25;41.14